Time;durP1;ratioP1;P1;durP2;ratioP2;P2;SDS_P1;SDS_P2;PMS_P1;PMS_P2;Temp;Humidity;BMP_temperature;BMP_pressure;BME280_temperature;BME280_humidity;BME280_pressure;Samples;Min_cycle;Max_cycle;Signal;HPM_P1;HPM_P2
2023/04/06 00:01:00;;;;;;;9.68;5.43;;;2.50;99.90;;;;;;5031572;28;20052;-77
2023/04/06 00:03:26;;;;;;;10.98;5.57;;;2.50;99.90;;;;;;5050326;28;20044;-76
2023/04/06 00:05:52;;;;;;;9.75;6.25;;;2.50;99.90;;;;;;5049281;28;20037;-76
2023/04/06 00:08:17;;;;;;;7.55;5.72;;;2.60;99.90;;;;;;5051237;28;20044;-76
2023/04/06 00:10:43;;;;;;;9.82;6.63;;;2.40;99.90;;;;;;5050736;28;20107;-76
2023/04/06 00:13:09;;;;;;;11.07;6.40;;;2.40;99.90;;;;;;5050263;28;20045;-76
2023/04/06 00:15:35;;;;;;;11.45;6.35;;;2.40;99.90;;;;;;5033387;28;20476;-76
2023/04/06 00:18:02;;;;;;;8.93;6.18;;;2.30;99.90;;;;;;5049222;28;20048;-76
2023/04/06 00:20:28;;;;;;;11.07;6.05;;;2.30;99.90;;;;;;5033438;28;20404;-76
2023/04/06 00:22:54;;;;;;;10.80;7.18;;;2.30;99.90;;;;;;5048938;28;20534;-76
2023/04/06 00:25:20;;;;;;;9.77;6.30;;;3.10;99.90;;;;;;5049708;28;20123;-76
2023/04/06 00:27:45;;;;;;;13.02;6.18;;;2.10;99.90;;;;;;5050342;28;20079;-76
2023/04/06 00:30:11;;;;;;;9.15;6.22;;;2.50;99.90;;;;;;5048503;28;20484;-76
2023/04/06 00:32:37;;;;;;;14.10;9.00;;;2.10;99.90;;;;;;5049457;28;20132;-76
2023/04/06 00:35:04;;;;;;;9.70;5.72;;;2.30;99.90;;;;;;5030857;28;20183;-76
2023/04/06 00:37:30;;;;;;;12.95;6.90;;;2.00;99.90;;;;;;5049917;28;20131;-76
2023/04/06 00:39:56;;;;;;;12.63;5.90;;;2.00;99.90;;;;;;5047355;28;20140;-76
2023/04/06 00:42:26;;;;;;;11.98;6.68;;;2.60;99.90;;;;;;5049707;28;20072;-76
2023/04/06 00:44:54;;;;;;;9.88;6.10;;;2.50;99.90;;;;;;5048493;28;20106;-76
2023/04/06 00:47:21;;;;;;;10.18;6.80;;;1.80;99.90;;;;;;5048202;28;20488;-76
2023/04/06 00:49:47;;;;;;;9.38;6.30;;;2.50;99.90;;;;;;5049396;28;20049;-76
2023/04/06 00:52:12;;;;;;;11.80;6.13;;;2.40;99.90;;;;;;5030691;28;20040;-76
2023/04/06 00:54:38;;;;;;;10.15;6.72;;;1.90;99.90;;;;;;5048998;28;20044;-76
2023/04/06 00:57:04;;;;;;;12.35;7.07;;;2.00;99.90;;;;;;5047396;28;20077;-76
2023/04/06 00:59:30;;;;;;;9.48;6.28;;;1.70;99.90;;;;;;5050882;28;20048;-76
2023/04/06 01:01:55;;;;;;;10.05;6.60;;;1.80;99.90;;;;;;5048271;28;20053;-77
2023/04/06 01:04:24;;;;;;;11.95;5.90;;;1.60;99.90;;;;;;5049767;28;20049;-77
2023/04/06 01:06:50;;;;;;;12.20;6.82;;;1.60;99.90;;;;;;5048817;28;20053;-77
2023/04/06 01:09:17;;;;;;;11.85;7.00;;;2.70;99.90;;;;;;5046883;28;20462;-77
2023/04/06 01:11:42;;;;;;;9.93;6.47;;;1.50;99.90;;;;;;5048820;28;20056;-77
2023/04/06 01:14:09;;;;;;;10.18;7.65;;;2.30;99.90;;;;;;5030128;28;20041;-77
2023/04/06 01:16:35;;;;;;;14.32;7.80;;;1.50;99.90;;;;;;5050018;28;20377;-76
2023/04/06 01:19:01;;;;;;;10.82;7.07;;;2.30;99.90;;;;;;5046757;28;20048;-77
2023/04/06 01:21:27;;;;;;;12.82;6.78;;;2.30;99.90;;;;;;5031467;28;20404;-77
2023/04/06 01:23:53;;;;;;;13.70;7.80;;;1.40;99.90;;;;;;5031871;28;20049;-76
2023/04/06 01:26:18;;;;;;;10.32;6.57;;;1.80;99.90;;;;;;5030158;28;20056;-77
2023/04/06 01:28:44;;;;;;;14.93;7.45;;;1.50;99.90;;;;;;5048565;28;20049;-77
2023/04/06 01:31:10;;;;;;;11.57;6.82;;;1.90;99.90;;;;;;5046703;28;20048;-77
2023/04/06 01:33:36;;;;;;;17.00;8.50;;;1.30;99.90;;;;;;5048260;28;20053;-77
2023/04/06 01:36:03;;;;;;;11.40;6.80;;;2.20;99.90;;;;;;5046898;28;20074;-77
2023/04/06 01:38:29;;;;;;;11.68;7.47;;;1.20;99.90;;;;;;5047749;28;20057;-76
2023/04/06 01:40:55;;;;;;;17.00;7.60;;;1.20;99.90;;;;;;5048121;28;20051;-76
2023/04/06 01:43:21;;;;;;;12.27;6.82;;;1.20;99.90;;;;;;5046261;28;20049;-75
2023/04/06 01:45:46;;;;;;;15.35;7.80;;;1.20;99.90;;;;;;5064864;28;20041;-76
2023/04/06 01:48:12;;;;;;;12.25;7.05;;;1.20;99.90;;;;;;5047426;28;20053;-76
2023/04/06 01:50:38;;;;;;;13.02;7.82;;;1.20;99.90;;;;;;5031575;28;20126;-76
2023/04/06 01:53:04;;;;;;;12.05;7.47;;;1.10;99.90;;;;;;5046607;28;20144;-76
2023/04/06 01:55:29;;;;;;;11.82;7.28;;;1.90;99.90;;;;;;5030944;28;20385;-76
2023/04/06 01:57:55;;;;;;;11.85;7.70;;;1.10;99.90;;;;;;5049226;28;20123;-76
2023/04/06 02:00:21;;;;;;;15.55;7.97;;;1.00;99.90;;;;;;5046403;28;20360;-76
2023/04/06 02:02:47;;;;;;;12.20;7.40;;;1.00;99.90;;;;;;5049201;28;20040;-76
2023/04/06 02:05:12;;;;;;;12.73;7.68;;;1.30;99.90;;;;;;5029284;28;20052;-76
2023/04/06 02:07:38;;;;;;;11.13;8.13;;;1.00;99.90;;;;;;5049252;28;20083;-77
2023/04/06 02:10:04;;;;;;;13.68;8.07;;;2.20;99.90;;;;;;5045852;28;20135;-76
2023/04/06 02:12:30;;;;;;;17.33;8.70;;;1.00;99.90;;;;;;5047961;28;20504;-77
2023/04/06 02:14:56;;;;;;;14.85;8.23;;;1.00;99.90;;;;;;5047182;28;20123;-78
2023/04/06 02:17:21;;;;;;;13.60;7.90;;;1.10;99.90;;;;;;5046601;28;20428;-78
2023/04/06 02:19:47;;;;;;;16.02;7.97;;;1.20;99.90;;;;;;5031258;28;20106;-78
2023/04/06 02:22:13;;;;;;;15.32;8.23;;;1.00;99.90;;;;;;5047343;28;20145;-77
2023/04/06 02:24:38;;;;;;;13.30;8.52;;;0.90;99.90;;;;;;5047704;28;20045;-77
2023/04/06 02:27:04;;;;;;;12.60;8.05;;;1.80;99.90;;;;;;5047290;28;20045;-77
2023/04/06 02:29:30;;;;;;;12.60;8.23;;;1.10;99.90;;;;;;5048997;28;20041;-78
2023/04/06 02:31:56;;;;;;;15.02;8.57;;;0.90;99.90;;;;;;5046858;28;20446;-78
2023/04/06 02:34:21;;;;;;;13.90;7.82;;;1.90;99.90;;;;;;5047741;28;20056;-78
2023/04/06 02:36:47;;;;;;;13.88;9.38;;;0.90;99.90;;;;;;5031138;28;20102;-78
2023/04/06 02:39:14;;;;;;;11.85;7.97;;;0.90;99.90;;;;;;5045840;28;20049;-78
2023/04/06 02:41:40;;;;;;;14.80;8.35;;;0.80;99.90;;;;;;5048029;28;20404;-77
2023/04/06 02:44:09;;;;;;;15.40;8.20;;;0.80;99.90;;;;;;5046280;28;20064;-78
2023/04/06 02:46:35;;;;;;;11.60;7.60;;;0.90;99.90;;;;;;5049071;28;20052;-78
2023/04/06 02:49:00;;;;;;;11.70;8.50;;;1.10;99.90;;;;;;5046678;28;20049;-78
2023/04/06 02:51:29;;;;;;;14.43;7.97;;;0.80;99.90;;;;;;5030110;28;20041;-78
2023/04/06 02:53:55;;;;;;;13.68;7.78;;;0.80;99.90;;;;;;5047149;28;20049;-77
2023/04/06 02:56:21;;;;;;;16.38;7.82;;;0.80;99.90;;;;;;5045799;28;20142;-77
2023/04/06 02:58:47;;;;;;;13.15;7.75;;;0.70;99.90;;;;;;5047333;28;20047;-77
2023/04/06 03:01:13;;;;;;;11.15;7.57;;;0.70;99.90;;;;;;5045260;28;20052;-77
2023/04/06 03:03:38;;;;;;;12.50;7.82;;;0.90;99.90;;;;;;5047567;28;20045;-77
2023/04/06 03:06:04;;;;;;;12.73;7.65;;;1.10;99.90;;;;;;5029948;28;20053;-76
2023/04/06 03:08:30;;;;;;;13.75;8.45;;;0.70;99.90;;;;;;5046739;28;20044;-76
2023/04/06 03:10:56;;;;;;;10.48;6.95;;;1.60;99.90;;;;;;5047092;28;20403;-75
2023/04/06 03:13:21;;;;;;;11.45;7.80;;;0.60;99.90;;;;;;5045217;28;20344;-76
2023/04/06 03:15:47;;;;;;;12.15;7.72;;;1.90;99.90;;;;;;5030647;28;20099;-77
2023/04/06 03:18:13;;;;;;;14.52;7.95;;;0.60;99.90;;;;;;5029235;28;20045;-77
2023/04/06 03:20:39;;;;;;;12.45;7.28;;;1.00;99.90;;;;;;5047172;28;20449;-76
2023/04/06 03:23:05;;;;;;;11.82;8.77;;;0.50;99.90;;;;;;5029486;28;20057;-77
2023/04/06 03:25:31;;;;;;;13.73;7.93;;;0.50;99.90;;;;;;5029956;28;20346;-76
2023/04/06 03:27:57;;;;;;;14.25;8.15;;;0.50;99.90;;;;;;5048612;28;20033;-77
2023/04/06 03:30:22;;;;;;;16.08;8.10;;;0.50;99.90;;;;;;5045220;28;20137;-77
2023/04/06 03:32:48;;;;;;;11.15;7.75;;;0.90;99.90;;;;;;5046564;28;20045;-78
2023/04/06 03:35:14;;;;;;;13.70;8.13;;;1.80;99.90;;;;;;5044889;28;20475;-77
2023/04/06 03:37:40;;;;;;;13.77;7.85;;;0.50;99.90;;;;;;5030459;28;20106;-77
2023/04/06 03:40:06;;;;;;;12.57;7.72;;;0.40;99.90;;;;;;5046672;28;20072;-77
2023/04/06 03:42:32;;;;;;;15.38;8.05;;;0.40;99.90;;;;;;5050378;28;20122;-77
2023/04/06 03:44:58;;;;;;;15.07;8.15;;;0.40;99.90;;;;;;5050626;28;20135;-77
2023/04/06 03:47:25;;;;;;;10.95;7.07;;;0.40;99.90;;;;;;5048820;28;20116;-76
2023/04/06 03:49:51;;;;;;;18.30;7.50;;;0.40;99.90;;;;;;5033870;28;20183;-77
2023/04/06 03:52:17;;;;;;;14.15;7.78;;;0.30;99.90;;;;;;5048615;28;20128;-77
2023/04/06 03:54:43;;;;;;;12.52;8.25;;;0.50;99.90;;;;;;5050281;28;20049;-77
2023/04/06 03:57:09;;;;;;;15.50;8.68;;;0.30;99.90;;;;;;5032181;28;20047;-77
2023/04/06 03:59:35;;;;;;;15.35;7.55;;;0.30;99.90;;;;;;5049911;28;20037;-77
2023/04/06 04:02:00;;;;;;;13.63;7.40;;;0.30;99.90;;;;;;5050217;28;20104;-77
2023/04/06 04:04:26;;;;;;;10.68;7.45;;;0.30;99.90;;;;;;5048955;28;20040;-76
2023/04/06 04:06:52;;;;;;;12.50;7.65;;;1.60;99.90;;;;;;5050137;28;20142;-77
2023/04/06 04:09:18;;;;;;;11.57;7.55;;;1.60;99.90;;;;;;5049395;28;20037;-76
2023/04/06 04:11:43;;;;;;;11.80;7.35;;;0.20;99.90;;;;;;5050119;28;20052;-76
2023/04/06 04:14:09;;;;;;;14.90;9.02;;;0.20;99.90;;;;;;5048110;28;20080;-76
2023/04/06 04:16:35;;;;;;;10.55;7.25;;;0.20;99.90;;;;;;5051676;28;20037;-76
2023/04/06 04:19:00;;;;;;;11.45;7.72;;;0.60;99.90;;;;;;5032631;28;20080;-77
2023/04/06 04:21:30;;;;;;;12.07;8.27;;;0.20;99.90;;;;;;5031954;28;20056;-76
2023/04/06 04:23:56;;;;;;;17.25;9.05;;;0.20;99.90;;;;;;5051414;28;20374;-77
2023/04/06 04:26:22;;;;;;;12.40;7.93;;;0.20;99.90;;;;;;5049438;28;20150;-77
2023/04/06 04:28:47;;;;;;;11.30;8.00;;;0.20;99.90;;;;;;5049660;28;20559;-76
2023/04/06 04:31:13;;;;;;;9.05;6.90;;;0.20;99.90;;;;;;5014671;28;20132;-76
2023/04/06 04:33:39;;;;;;;12.23;8.35;;;1.20;99.90;;;;;;5049527;28;20048;-77
2023/04/06 04:36:05;;;;;;;11.27;7.32;;;0.80;99.90;;;;;;5050496;28;20561;-77
2023/04/06 04:38:31;;;;;;;12.35;7.30;;;0.10;99.90;;;;;;5048697;28;20521;-76
2023/04/06 04:40:56;;;;;;;14.55;9.50;;;0.10;99.90;;;;;;5033394;28;20037;-81
2023/04/06 04:43:22;;;;;;;11.05;7.85;;;0.90;99.90;;;;;;5047623;28;20401;-80
2023/04/06 04:45:48;;;;;;;12.55;7.95;;;0.10;99.90;;;;;;5049319;28;20060;-80
2023/04/06 04:48:14;;;;;;;15.65;8.63;;;0.10;99.90;;;;;;5031226;28;20052;-79
2023/04/06 04:50:39;;;;;;;9.80;7.15;;;1.30;99.90;;;;;;5049444;28;20098;-80
2023/04/06 04:53:05;;;;;;;12.93;7.40;;;1.00;99.90;;;;;;5047983;28;20094;-79
2023/04/06 04:55:32;;;;;;;15.05;7.55;;;0.10;99.90;;;;;;5048371;28;20764;-79
2023/04/06 04:57:58;;;;;;;14.00;7.32;;;0.10;99.90;;;;;;5032588;28;20048;-78
2023/04/06 05:00:23;;;;;;;12.65;7.72;;;0.20;99.90;;;;;;5047222;28;20060;-78
2023/04/06 05:02:49;;;;;;;10.73;7.10;;;0.20;99.90;;;;;;5033175;28;20059;-78
2023/04/06 05:05:15;;;;;;;10.02;6.82;;;1.20;99.90;;;;;;5048848;28;20056;-79
2023/04/06 05:07:41;;;;;;;15.52;7.63;;;0.20;99.90;;;;;;5050783;28;20486;-79
2023/04/06 05:10:07;;;;;;;10.77;7.10;;;0.30;99.90;;;;;;5047907;28;20396;-77
2023/04/06 05:12:33;;;;;;;16.58;7.03;;;0.40;99.90;;;;;;5053297;28;20204;-76
2023/04/06 05:14:59;;;;;;;14.32;7.88;;;1.00;99.90;;;;;;5050245;28;20130;-79
2023/04/06 05:17:25;;;;;;;13.75;7.03;;;0.70;99.90;;;;;;5047108;28;20492;-79
2023/04/06 05:19:51;;;;;;;12.85;7.43;;;0.50;99.90;;;;;;5032592;28;20140;-78
2023/04/06 05:22:17;;;;;;;14.65;7.65;;;0.60;99.90;;;;;;5030021;28;20131;-79
2023/04/06 05:24:43;;;;;;;11.60;7.20;;;1.80;99.90;;;;;;5032536;28;20041;-79
2023/04/06 05:27:09;;;;;;;14.45;6.93;;;0.60;99.90;;;;;;5030298;28;20053;-78
2023/04/06 05:29:35;;;;;;;17.80;10.07;;;0.70;99.90;;;;;;5047897;28;20106;-77
2023/04/06 05:32:01;;;;;;;10.63;6.75;;;-0.30;99.90;;;;;;5049809;28;20076;-77
2023/04/06 05:34:27;;;;;;;13.05;6.47;;;0.80;99.90;;;;;;5046141;28;20053;-78
2023/04/06 05:36:53;;;;;;;9.32;6.18;;;0.80;99.90;;;;;;5048212;28;20396;-77
2023/04/06 05:39:19;;;;;;;10.18;6.35;;;0.80;99.90;;;;;;5046237;28;20048;-77
2023/04/06 05:41:45;;;;;;;10.45;6.78;;;0.90;99.90;;;;;;5049646;28;20045;-76
2023/04/06 05:44:10;;;;;;;17.45;6.28;;;0.90;99.90;;;;;;5046626;28;20051;-80
2023/04/06 05:46:36;;;;;;;10.70;6.10;;;1.60;99.90;;;;;;5031583;28;20827;-79
2023/04/06 05:49:02;;;;;;;12.27;6.80;;;2.30;99.90;;;;;;5047903;28;20408;-77
2023/04/06 05:51:27;;;;;;;9.60;6.28;;;1.10;99.90;;;;;;5046642;28;20045;-78
2023/04/06 05:53:53;;;;;;;15.65;6.50;;;1.30;99.90;;;;;;5048448;28;20400;-77
2023/04/06 05:56:19;;;;;;;7.65;5.72;;;1.20;99.90;;;;;;5030179;28;20044;-77
2023/04/06 05:58:44;;;;;;;15.55;6.05;;;1.30;99.90;;;;;;5048182;28;20041;-77
2023/04/06 06:01:10;;;;;;;9.75;6.28;;;1.40;99.90;;;;;;5046414;28;20073;-77
2023/04/06 06:03:36;;;;;;;14.00;6.15;;;2.40;99.90;;;;;;5030982;28;20037;-77
2023/04/06 06:06:03;;;;;;;17.00;6.95;;;2.70;99.90;;;;;;5047677;28;20047;-80
2023/04/06 06:08:30;;;;;;;13.25;6.55;;;1.60;99.90;;;;;;5030266;28;20444;-77
2023/04/06 06:10:56;;;;;;;11.23;7.22;;;2.10;99.90;;;;;;5031694;28;20464;-78
2023/04/06 06:13:23;;;;;;;10.07;5.78;;;3.00;99.90;;;;;;5045676;28;20492;-78
2023/04/06 06:15:49;;;;;;;10.15;6.78;;;1.80;99.90;;;;;;5048072;28;20045;-77
2023/04/06 06:18:15;;;;;;;10.55;6.43;;;1.90;99.90;;;;;;5046155;28;20571;-77
2023/04/06 06:20:41;;;;;;;9.65;7.03;;;2.00;99.90;;;;;;5047681;28;20131;-77
2023/04/06 06:23:06;;;;;;;14.15;6.28;;;2.10;99.90;;;;;;5046925;28;20092;-78
2023/04/06 06:25:32;;;;;;;12.60;6.47;;;2.20;99.90;;;;;;5046930;28;20077;-78
2023/04/06 06:27:59;;;;;;;8.75;6.47;;;3.20;99.90;;;;;;5047652;28;20458;-79
2023/04/06 06:30:25;;;;;;;11.82;6.72;;;2.90;99.90;;;;;;5047228;28;20044;-76
2023/04/06 06:32:51;;;;;;;10.48;6.63;;;2.80;99.90;;;;;;5049108;28;20493;-76
2023/04/06 06:35:17;;;;;;;12.68;6.68;;;2.60;99.90;;;;;;5045505;28;20049;-76
2023/04/06 06:37:43;;;;;;;8.90;6.03;;;2.90;99.90;;;;;;5047682;28;20087;-76
2023/04/06 06:40:12;;;;;;;8.65;6.05;;;2.80;99.90;;;;;;5046438;28;20138;-76
2023/04/06 06:42:39;;;;;;;10.98;6.45;;;2.90;99.90;;;;;;5030628;28;20556;-76
2023/04/06 06:45:06;;;;;;;8.15;5.85;;;3.00;99.90;;;;;;5030890;28;20052;-75
2023/04/06 06:47:32;;;;;;;17.42;8.75;;;3.10;99.90;;;;;;5028827;28;20056;-76
2023/04/06 06:49:58;;;;;;;10.82;6.97;;;3.20;99.90;;;;;;5030990;28;20044;-77
2023/04/06 06:52:24;;;;;;;18.05;6.65;;;3.30;99.90;;;;;;5029229;28;20052;-75
2023/04/06 06:54:49;;;;;;;9.40;6.38;;;3.50;99.90;;;;;;5047594;28;20102;-76
2023/04/06 06:57:15;;;;;;;12.10;6.68;;;3.50;99.90;;;;;;5046304;28;20081;-76
2023/04/06 06:59:41;;;;;;;13.30;6.88;;;3.70;99.90;;;;;;5046511;28;20133;-75
2023/04/06 07:02:07;;;;;;;15.18;6.50;;;3.70;99.90;;;;;;5014516;28;20059;-76
2023/04/06 07:04:33;;;;;;;13.98;7.18;;;3.80;99.90;;;;;;5045887;28;20049;-77
2023/04/06 07:06:58;;;;;;;11.80;6.30;;;3.90;99.90;;;;;;5030840;28;20087;-76
2023/04/06 07:09:26;;;;;;;12.23;6.32;;;4.00;99.90;;;;;;5045088;28;20044;-76
2023/04/06 07:11:51;;;;;;;13.23;6.15;;;4.10;99.90;;;;;;5030942;28;20045;-76
2023/04/06 07:14:17;;;;;;;16.73;7.82;;;4.20;99.90;;;;;;5045871;28;20126;-76
2023/04/06 07:16:44;;;;;;;14.90;6.53;;;4.30;99.90;;;;;;5016173;28;20053;-76
2023/04/06 07:19:10;;;;;;;10.80;7.03;;;4.50;99.90;;;;;;5034611;28;20473;-77
2023/04/06 07:21:36;;;;;;;14.45;7.05;;;4.70;99.90;;;;;;5049365;28;20072;-77
2023/04/06 07:24:02;;;;;;;12.82;6.63;;;4.70;99.90;;;;;;5051029;28;20049;-77
2023/04/06 07:26:28;;;;;;;13.23;5.97;;;4.80;99.90;;;;;;5082313;28;20084;-77
2023/04/06 07:28:53;;;;;;;12.75;6.50;;;5.00;99.90;;;;;;5018609;28;20450;-77
2023/04/06 07:31:20;;;;;;;11.48;7.03;;;5.10;99.90;;;;;;5032665;28;20396;-77
2023/04/06 07:33:46;;;;;;;8.75;5.68;;;5.20;99.90;;;;;;5050155;28;20512;-77
2023/04/06 07:36:12;;;;;;;11.18;6.57;;;5.30;99.90;;;;;;5050480;28;20073;-77
2023/04/06 07:38:38;;;;;;;13.05;6.55;;;5.50;99.90;;;;;;5016331;28;20064;-83
2023/04/06 07:41:04;;;;;;;9.40;6.35;;;5.60;99.90;;;;;;5034460;28;20503;-77
2023/04/06 07:43:30;;;;;;;9.77;6.10;;;5.70;99.90;;;;;;5032273;28;20132;-78
2023/04/06 07:45:57;;;;;;;11.85;6.53;;;5.80;99.90;;;;;;5050888;28;20588;-78
2023/04/06 07:48:23;;;;;;;11.27;6.18;;;6.00;99.90;;;;;;5049168;28;20450;-78
2023/04/06 07:50:49;;;;;;;12.35;6.10;;;6.10;99.90;;;;;;5033556;28;20099;-78
2023/04/06 07:53:15;;;;;;;14.30;6.57;;;6.20;99.90;;;;;;5050353;28;20045;-77
2023/04/06 07:55:41;;;;;;;10.88;6.80;;;6.40;99.90;;;;;;5048816;28;20118;-78
2023/04/06 07:58:07;;;;;;;9.77;6.65;;;6.50;99.90;;;;;;5038308;28;20048;-77
2023/04/06 08:00:32;;;;;;;9.98;6.10;;;6.60;99.90;;;;;;5015565;28;20056;-78
2023/04/06 08:02:58;;;;;;;12.20;6.40;;;6.70;99.90;;;;;;5052254;28;20045;-78
2023/04/06 08:05:24;;;;;;;9.43;6.50;;;6.90;99.90;;;;;;5048402;28;20052;-77
2023/04/06 08:07:49;;;;;;;14.02;6.38;;;7.00;99.90;;;;;;5049973;28;20049;-77
2023/04/06 08:10:15;;;;;;;11.40;6.40;;;7.10;99.90;;;;;;5033313;28;20048;-78
2023/04/06 08:12:41;;;;;;;16.77;6.25;;;7.20;99.90;;;;;;5032872;28;20434;-77
2023/04/06 08:15:07;;;;;;;10.85;6.43;;;7.30;99.90;;;;;;5051712;28;20127;-77
2023/04/06 08:17:33;;;;;;;9.85;5.90;;;7.50;99.90;;;;;;5048363;28;20432;-77
2023/04/06 08:20:00;;;;;;;11.35;6.53;;;7.60;99.90;;;;;;5033570;28;20183;-77
2023/04/06 08:22:26;;;;;;;11.15;6.60;;;7.70;99.90;;;;;;5047905;28;20049;-77
2023/04/06 08:24:51;;;;;;;12.95;6.25;;;7.80;99.90;;;;;;5049799;28;20049;-77
2023/04/06 08:27:17;;;;;;;10.82;6.70;;;8.00;99.90;;;;;;5032521;28;20133;-77
2023/04/06 08:29:43;;;;;;;9.77;5.68;;;8.10;99.90;;;;;;5048966;28;20532;-77
2023/04/06 08:32:09;;;;;;;10.45;6.75;;;8.20;99.90;;;;;;5033020;28;20111;-77
2023/04/06 08:34:35;;;;;;;12.30;6.00;;;8.40;99.90;;;;;;5031168;28;20056;-77
2023/04/06 08:37:01;;;;;;;15.07;6.88;;;9.50;99.90;;;;;;5033100;28;20048;-77
2023/04/06 08:39:27;;;;;;;8.90;6.28;;;8.60;99.90;;;;;;5049181;28;20090;-77
2023/04/06 08:41:56;;;;;;;13.35;6.47;;;8.70;99.90;;;;;;5033223;28;20055;-76
2023/04/06 08:44:23;;;;;;;9.20;6.57;;;8.90;99.90;;;;;;5048356;28;20516;-77
2023/04/06 08:46:50;;;;;;;11.43;6.68;;;9.00;99.90;;;;;;5048688;28;20419;-77
2023/04/06 08:49:16;;;;;;;11.15;7.07;;;9.10;99.90;;;;;;5051015;28;20321;-77
2023/04/06 08:51:42;;;;;;;9.70;6.88;;;9.20;99.90;;;;;;5031041;28;20700;-77
2023/04/06 08:54:08;;;;;;;9.95;5.93;;;9.30;99.90;;;;;;5050748;28;20403;-77
2023/04/06 08:56:38;;;;;;;12.88;6.47;;;9.40;99.90;;;;;;5049080;28;20106;-77
2023/04/06 08:59:05;;;;;;;15.70;7.13;;;9.50;99.90;;;;;;5049248;28;20102;-77
2023/04/06 09:01:38;;;;;;;12.23;7.55;;;9.60;99.90;;;;;;5049991;28;20381;-77
2023/04/06 09:04:09;;;;;;;8.25;6.22;;;9.70;99.90;;;;;;5048068;28;20429;-77
2023/04/06 09:06:36;;;;;;;12.23;6.72;;;9.90;99.90;;;;;;5049425;28;20082;-77
2023/04/06 09:09:02;;;;;;;8.73;6.28;;;9.90;99.90;;;;;;5030973;28;20106;-77
2023/04/06 09:11:28;;;;;;;10.07;6.93;;;10.10;99.90;;;;;;5032312;28;20400;-77
2023/04/06 09:13:56;;;;;;;13.95;6.43;;;10.20;99.90;;;;;;5047224;28;20160;-77
2023/04/06 09:16:22;;;;;;;10.27;6.22;;;10.40;98.90;;;;;;5032571;28;20036;-77
2023/04/06 09:18:49;;;;;;;12.27;6.22;;;10.50;98.60;;;;;;5048121;28;20049;-77
2023/04/06 09:21:18;;;;;;;10.23;6.32;;;10.70;98.30;;;;;;5030633;28;20468;-77
2023/04/06 09:23:43;;;;;;;10.43;6.30;;;10.90;98.00;;;;;;5032441;28;20060;-77
2023/04/06 09:26:10;;;;;;;9.38;6.30;;;11.00;97.70;;;;;;5030112;28;20434;-77
2023/04/06 09:28:49;;;;;;;9.77;6.07;;;11.20;97.10;;;;;;5048630;28;20049;-77
2023/04/06 09:31:35;;;;;;;13.65;6.13;;;11.50;95.80;;;;;;5047056;28;20045;-77
2023/04/06 09:34:01;;;;;;;8.23;5.82;;;11.70;95.00;;;;;;5063503;28;20574;-77
2023/04/06 09:36:38;;;;;;;10.82;6.32;;;11.80;95.10;;;;;;5048432;28;20044;-77
2023/04/06 09:39:04;;;;;;;8.48;5.80;;;12.10;94.70;;;;;;5013217;28;20049;-77
2023/04/06 09:41:35;;;;;;;11.98;6.05;;;12.20;94.30;;;;;;5048688;28;20404;-77
2023/04/06 09:44:07;;;;;;;10.68;6.32;;;12.20;91.90;;;;;;5047096;28;20071;-77
2023/04/06 09:46:34;;;;;;;10.75;7.32;;;12.10;89.90;;;;;;5048099;28;20186;-77
2023/04/06 09:49:03;;;;;;;11.30;6.78;;;11.90;89.00;;;;;;5048134;28;20052;-77
2023/04/06 09:51:37;;;;;;;9.05;6.35;;;11.80;89.60;;;;;;5046726;28;20431;-77
2023/04/06 09:54:04;;;;;;;12.20;6.50;;;11.80;89.40;;;;;;5049758;28;20100;-78
2023/04/06 09:56:42;;;;;;;10.55;6.35;;;11.80;90.30;;;;;;5046379;28;20053;-78
2023/04/06 09:59:40;;;;;;;15.52;7.00;;;11.80;87.50;;;;;;5031304;28;20045;-78
2023/04/06 10:02:15;;;;;;;11.23;7.00;;;11.80;87.80;;;;;;5048413;28;20048;-77
2023/04/06 10:04:54;;;;;;;14.30;7.65;;;11.70;88.80;;;;;;5046147;28;20095;-78
2023/04/06 10:07:20;;;;;;;11.27;7.20;;;11.70;87.00;;;;;;5048055;28;20053;-78
2023/04/06 10:09:47;;;;;;;12.88;6.97;;;11.70;87.80;;;;;;5047757;28;20128;-78
2023/04/06 10:12:13;;;;;;;13.93;7.65;;;11.70;88.30;;;;;;5047696;28;20075;-78
2023/04/06 10:14:41;;;;;;;11.25;7.47;;;11.70;89.10;;;;;;5047980;28;20125;-77
2023/04/06 10:17:06;;;;;;;11.00;7.60;;;11.80;89.20;;;;;;5045798;28;20048;-77
2023/04/06 10:19:47;;;;;;;13.63;7.90;;;11.80;89.20;;;;;;5048226;28;20070;-77
2023/04/06 10:22:24;;;;;;;11.73;7.45;;;11.90;88.80;;;;;;5029248;28;20068;-77
2023/04/06 10:24:49;;;;;;;11.63;7.30;;;12.00;87.90;;;;;;5049185;28;20052;-77
2023/04/06 10:27:15;;;;;;;14.23;7.22;;;12.10;89.00;;;;;;5047050;28;20040;-77
2023/04/06 10:29:51;;;;;;;12.07;7.32;;;12.20;88.60;;;;;;5046399;28;20072;-77
2023/04/06 10:32:16;;;;;;;13.82;7.95;;;12.20;87.10;;;;;;5031745;28;20080;-77
2023/04/06 10:34:42;;;;;;;13.90;8.38;;;12.40;88.00;;;;;;5045152;28;20092;-77
2023/04/06 10:37:15;;;;;;;18.52;10.48;;;12.50;87.50;;;;;;5049095;28;20049;-77
2023/04/06 10:39:59;;;;;;;15.48;9.15;;;12.60;85.70;;;;;;5079788;28;20159;-77
2023/04/06 10:42:35;;;;;;;14.85;8.32;;;12.60;84.30;;;;;;5046550;28;20127;-77
2023/04/06 10:45:01;;;;;;;15.88;8.55;;;12.70;86.30;;;;;;5049116;28;20788;-77
2023/04/06 10:47:27;;;;;;;17.67;9.10;;;12.80;86.40;;;;;;5045235;28;20148;-77
2023/04/06 10:49:52;;;;;;;15.10;8.35;;;12.90;86.30;;;;;;5048617;28;20041;-77
2023/04/06 10:52:18;;;;;;;16.27;9.27;;;12.90;85.60;;;;;;5016695;28;20037;-77
2023/04/06 10:54:45;;;;;;;17.33;9.82;;;13.00;85.40;;;;;;5018158;28;20044;-77
2023/04/06 10:57:12;;;;;;;16.58;9.77;;;13.10;84.60;;;;;;5034520;28;20514;-77
2023/04/06 10:59:43;;;;;;;17.63;10.25;;;13.20;83.30;;;;;;5033557;28;20541;-77
2023/04/06 11:02:08;;;;;;;14.18;9.75;;;13.20;82.40;;;;;;5068303;28;20045;-78
2023/04/06 11:04:34;;;;;;;15.73;10.48;;;13.20;82.20;;;;;;5049746;28;20051;-77
2023/04/06 11:07:00;;;;;;;18.20;11.13;;;13.10;81.90;;;;;;5052569;28;20491;-77
2023/04/06 11:09:28;;;;;;;16.08;9.93;;;13.10;81.50;;;;;;5032830;28;20076;-77
2023/04/06 11:11:55;;;;;;;17.17;10.27;;;13.10;80.70;;;;;;5034343;28;20550;-78
2023/04/06 11:14:20;;;;;;;19.05;11.20;;;13.00;79.60;;;;;;5034323;28;20385;-77
2023/04/06 11:16:50;;;;;;;20.65;13.13;;;12.90;79.70;;;;;;5049991;28;20040;-77
2023/04/06 11:19:16;;;;;;;18.38;11.48;;;13.00;80.20;;;;;;5067746;28;20087;-77
2023/04/06 11:21:48;;;;;;;18.80;11.20;;;13.10;80.50;;;;;;5048930;28;20123;-77
2023/04/06 11:24:23;;;;;;;21.80;11.70;;;13.20;80.70;;;;;;5068058;28;20080;-77
2023/04/06 11:26:57;;;;;;;20.02;14.35;;;13.40;78.80;;;;;;5033177;28;20078;-77
2023/04/06 11:29:26;;;;;;;24.88;15.50;;;13.40;78.60;;;;;;5083494;28;20052;-77
2023/04/06 11:32:10;;;;;;;25.08;16.80;;;13.50;75.70;;;;;;5067539;28;20124;-77
2023/04/06 11:34:38;;;;;;;23.02;17.50;;;13.40;70.50;;;;;;5064963;28;20056;-77
2023/04/06 11:37:08;;;;;;;26.50;16.83;;;13.30;72.80;;;;;;5050670;28;20053;-77
2023/04/06 11:39:51;;;;;;;28.48;17.80;;;13.30;72.40;;;;;;5065743;28;20088;-76
2023/04/06 11:42:27;;;;;;;31.05;18.23;;;13.40;70.70;;;;;;5033370;28;20044;-77
2023/04/06 11:45:00;;;;;;;27.60;17.00;;;13.40;71.30;;;;;;5034401;28;20049;-77
2023/04/06 11:47:31;;;;;;;27.60;17.63;;;13.60;71.40;;;;;;5065444;28;20068;-77
2023/04/06 11:50:09;;;;;;;24.42;16.13;;;13.80;69.00;;;;;;5033868;28;20480;-77
2023/04/06 11:52:35;;;;;;;25.85;16.95;;;13.90;69.00;;;;;;5032518;28;20087;-77
2023/04/06 11:55:14;;;;;;;25.70;17.52;;;14.00;69.60;;;;;;5016589;28;20080;-77
2023/04/06 11:57:41;;;;;;;25.52;17.17;;;14.20;68.80;;;;;;5050489;28;20041;-78
2023/04/06 12:00:09;;;;;;;26.85;16.88;;;14.20;68.30;;;;;;5081895;28;20056;-77
2023/04/06 12:02:39;;;;;;;28.35;18.40;;;14.20;68.10;;;;;;5050951;28;20076;-77
2023/04/06 12:05:06;;;;;;;29.92;17.90;;;14.10;67.50;;;;;;5082013;28;20045;-78
2023/04/06 12:07:32;;;;;;;26.27;17.80;;;14.10;67.90;;;;;;5033561;28;20045;-77
2023/04/06 12:09:59;;;;;;;33.47;17.58;;;14.00;67.10;;;;;;5083267;28;20099;-77
2023/04/06 12:12:25;;;;;;;24.40;17.23;;;13.90;66.60;;;;;;5031966;28;20060;-77
2023/04/06 12:14:51;;;;;;;25.77;17.52;;;13.90;66.70;;;;;;5033532;28;20036;-77
2023/04/06 12:17:18;;;;;;;28.60;18.52;;;13.90;66.50;;;;;;5049491;28;20063;-77
2023/04/06 12:19:44;;;;;;;25.92;17.35;;;14.00;66.80;;;;;;5049952;28;20080;-77
2023/04/06 12:22:10;;;;;;;27.48;16.83;;;14.00;66.50;;;;;;5047961;28;20376;-77
2023/04/06 12:24:36;;;;;;;28.98;17.20;;;14.00;66.20;;;;;;5066369;28;20045;-77
2023/04/06 12:27:02;;;;;;;32.20;18.65;;;14.00;65.40;;;;;;5032584;28;20075;-77
2023/04/06 12:29:27;;;;;;;30.00;17.20;;;14.00;65.10;;;;;;5032053;28;20041;-77
2023/04/06 12:31:53;;;;;;;23.63;16.67;;;13.90;65.20;;;;;;5049703;28;20041;-77
2023/04/06 12:34:19;;;;;;;26.70;18.33;;;13.80;65.50;;;;;;5030841;28;20440;-77
2023/04/06 12:36:45;;;;;;;28.85;16.75;;;13.90;65.80;;;;;;5049966;28;20068;-77
2023/04/06 12:39:11;;;;;;;24.88;17.85;;;13.90;66.00;;;;;;5048006;28;20355;-78
2023/04/06 12:41:40;;;;;;;25.92;16.17;;;13.80;66.00;;;;;;5033019;28;20053;-77